Terminal Aerodrome Forecast
Issued by NWS

Home | Current Version | Previous Version | Text Only | Print | Product List | Glossary On
Versions: 1 2 3 4 5 6 7 8 9 10 11 12
000
FTUS46 KSTO 270539
TAFMHR
TAF
KMHR 270539Z 2706/2806 15007KT P6SM BKN040 BKN150
      TEMPO 2714/2718 VRB03KT 3SM BCFG BKN004
     FM272000 33005KT P6SM SCT030 BKN150
     FM280300 23005KT P6SM BKN100
      AMD NOT SKED=

USA.gov is the U.S. government's official web portal to all federal, state and local government web resources and services.